Gracewood, GA (30812)

5:51 PM EST on December 22, 2014 (GMT -0500)
Tobacco Road | Change Station
CLOSE
Current Station
Personal Weather Station
Location: Gracewood, GA
Elevation: 295 ft
Nearby Weather Stations

Elev 295 ft 33.37 °N, 82.03 °W | Updated 5 seconds ago

Overcast
Overcast
45.2 °F
Feels Like 43 °F
N
4.0
Wind Variable Wind from NE
Gusts 6.0 mph

Today
High -- | Low -- °F
--% Chance of Precip.
Yesterday
High -- | Low -- °F
Precip. -- in
7:28 AM 5:25 PM
New Moon, 1% visible
Pressure 30.00 in
Visibility 10.0 miles
Clouds Mostly Cloudy 700 ft
Overcast 1100 ft
Windchill 43 °F
Dew Point 43 °F
Humidity 92%
Rainfall 0.36 in
Snow Depth Not available.
UV 0 out of 12
Pollen .80 out of 12
Air Quality Not available.
Flu Activity Not available.
METAR KAGS 222153Z 04005KT 10SM -RA BKN007 OVC011 08/07 A3000 RMK AO2 RAB27 SLP158 P0000 T00830072

More Conditions Fewer Conditions

Pressure 30.00 in
Visibility 10.0 miles
Clouds Mostly Cloudy 700 ft
Overcast 1100 ft
Windchill 43 °F
Dew Point 43 °F
Humidity 92%
Rainfall 0.36 in
Snow Depth Not available.
UV 0 out of 12
Pollen .80 out of 12
Air Quality Not available.
Flu Activity Not available.
METAR KAGS 222153Z 04005KT 10SM -RA BKN007 OVC011 08/07 A3000 RMK AO2 RAB27 SLP158 P0000 T00830072

More Conditions Fewer Conditions

10-Day Weather Forecast

Almanac

Astronomy

Dec. 22, 2014 Rise Set
Actual Time
Civil Twilight
Nautical Twilight
Astronomical Twilight
Moon
Length of Visible Light
Length of Day
Tomorrow will be .
, % of the Moon is Illuminated

Today's Extremes

State Highs State Lows

Community

WunderPhotos

Upload Photos

1,779,695 photos uploaded!

WunderBlogs® & News

Nearby

Air Quality

  Air Quality AQ Index Pollutant
Not available.

Snow Depth

Station Depth Elevation

Earthquake Activity

City Distance Mag. Time & Date
Minimum magnitude displayed is 2.5.

Coastal Water Temperatures

Place Temperature

Nearby Weather Stations